Sorlandet — LDTY — position and weather

sailwx.info

Track history (hours):
 
Tides and Currents Weather Stations Pressure Air Temp Water Temp Dewpoint Dewpoint Depression Visibility Wind Speed Wind Dir Waves Ship Positions

Sorlandet (Norway)

Last reported at 2019-Oct-15 04:12 UTC. Time now 2019-Oct-17 17:37 UTC.
Position N 38°57' W 010°14'.

Length 64 m; draft 4.5 m.

Type: Sailing vessel. MMSI: 257165000.

Date/timePositionNaut miles runAvg speedWind from/ knotsBaromVisibWave heightAir tempDewpointWater temp
2019-Oct-15 04:12N 38°57' W 010°14'1 5.8
2019-Oct-15 03:59N 38°59' W 010°13'3 5.8
2019-Oct-15 03:27N 39°01' W 010°12'3 4.6
2019-Oct-15 02:51N 39°04' W 010°10'0 0.8
2019-Oct-15 02:29N 39°04' W 010°11'1 1.3
2019-Oct-15 02:00N 39°05' W 010°11'1 1.8
2019-Oct-15 01:30N 39°06' W 010°10'1 2.6
2019-Oct-15 01:00N 39°07' W 010°10'1 2.1
2019-Oct-15 00:24N 39°08' W 010°10'1 2.0
2019-Oct-14 23:53N 39°09' W 010°09'1 2.8
2019-Oct-14 23:29N 39°10' W 010°09'3 3.2
2019-Oct-14 22:27N 39°13' W 010°07'  
2019-Oct-05 13:47N 47°47' W 005°40'2 6.2
2019-Oct-05 13:30N 47°48' W 005°38'3 6.6
2019-Oct-05 13:00N 47°49' W 005°33'3 6.6
2019-Oct-05 12:30N 47°51' W 005°29'3 6.4
2019-Oct-05 12:00N 47°53' W 005°26'3 6.3
2019-Oct-05 11:30N 47°55' W 005°22'4 7.0
2019-Oct-05 11:00N 47°58' W 005°18'3 6.9
2019-Oct-05 10:30N 48°00' W 005°15'3 6.8
2019-Oct-05 10:00N 48°03' W 005°11'3 6.2
2019-Oct-05 09:30N 48°05' W 005°08'3 6.4
2019-Oct-05 09:00N 48°06' W 005°03'3 6.4
2019-Oct-05 08:30N 48°06' W 004°59'3 6.1
2019-Oct-05 08:00N 48°07' W 004°54'3 6.3
2019-Oct-05 07:30N 48°07' W 004°49'3 6.3
2019-Oct-05 07:00N 48°07' W 004°45'3 6.2
2019-Oct-05 06:30N 48°07' W 004°40'3 6.5
2019-Oct-05 06:00N 48°08' W 004°35'3 6.4
2019-Oct-05 05:30N 48°09' W 004°31'3 6.6
2019-Oct-05 05:00N 48°12' W 004°29'2 3.5
2019-Oct-05 04:30N 48°13' W 004°29'  
Track history (hours):
 
Tides and Currents Weather Stations Pressure Air Temp Water Temp Dewpoint Dewpoint Depression Visibility Wind Speed Wind Dir Waves Ship Positions

Sorlandet (Norway)

Last reported at 2019-Oct-15 04:12 UTC. Time now 2019-Oct-17 17:37 UTC.
Position N 38°57' W 010°14'.

Length 64 m; draft 4.5 m.

Type: Sailing vessel. MMSI: 257165000.

Date/timePositionNaut miles runAvg speedWind from/ knotsBaromVisibWave heightAir tempDewpointWater temp
2019-Oct-15 04:12N 38°57' W 010°14'1 5.8
2019-Oct-15 03:59N 38°59' W 010°13'3 5.8
2019-Oct-15 03:27N 39°01' W 010°12'3 4.6
2019-Oct-15 02:51N 39°04' W 010°10'0 0.8
2019-Oct-15 02:29N 39°04' W 010°11'1 1.3
2019-Oct-15 02:00N 39°05' W 010°11'1 1.8
2019-Oct-15 01:30N 39°06' W 010°10'1 2.6
2019-Oct-15 01:00N 39°07' W 010°10'1 2.1
2019-Oct-15 00:24N 39°08' W 010°10'1 2.0
2019-Oct-14 23:53N 39°09' W 010°09'1 2.8
2019-Oct-14 23:29N 39°10' W 010°09'3 3.2
2019-Oct-14 22:27N 39°13' W 010°07'  
2019-Oct-05 13:47N 47°47' W 005°40'2 6.2
2019-Oct-05 13:30N 47°48' W 005°38'3 6.6
2019-Oct-05 13:00N 47°49' W 005°33'3 6.6
2019-Oct-05 12:30N 47°51' W 005°29'3 6.4
2019-Oct-05 12:00N 47°53' W 005°26'3 6.3
2019-Oct-05 11:30N 47°55' W 005°22'4 7.0
2019-Oct-05 11:00N 47°58' W 005°18'3 6.9
2019-Oct-05 10:30N 48°00' W 005°15'3 6.8
2019-Oct-05 10:00N 48°03' W 005°11'3 6.2
2019-Oct-05 09:30N 48°05' W 005°08'3 6.4
2019-Oct-05 09:00N 48°06' W 005°03'3 6.4
2019-Oct-05 08:30N 48°06' W 004°59'3 6.1
2019-Oct-05 08:00N 48°07' W 004°54'3 6.3
2019-Oct-05 07:30N 48°07' W 004°49'3 6.3
2019-Oct-05 07:00N 48°07' W 004°45'3 6.2
2019-Oct-05 06:30N 48°07' W 004°40'3 6.5
2019-Oct-05 06:00N 48°08' W 004°35'3 6.4
2019-Oct-05 05:30N 48°09' W 004°31'3 6.6
2019-Oct-05 05:00N 48°12' W 004°29'2 3.5
2019-Oct-05 04:30N 48°13' W 004°29'  

Dump ship's entire track history